sensor_id;sensor_type;location;lat;lon;timestamp;temperature;humidity
60039;DHT22;45916;52.734;6.544;2023-03-16T00:02:06;3.80;99.90
60039;DHT22;45916;52.734;6.544;2023-03-16T00:04:32;3.80;99.90
60039;DHT22;45916;52.734;6.544;2023-03-16T00:07:03;3.90;99.90
60039;DHT22;45916;52.734;6.544;2023-03-16T00:09:29;3.90;99.90
60039;DHT22;45916;52.734;6.544;2023-03-16T00:11:59;3.90;99.90
60039;DHT22;45916;52.734;6.544;2023-03-16T00:14:31;4.00;99.90
60039;DHT22;45916;52.734;6.544;2023-03-16T00:16:57;4.00;99.90
60039;DHT22;45916;52.734;6.544;2023-03-16T00:19:23;4.00;99.90
60039;DHT22;45916;52.734;6.544;2023-03-16T00:21:49;4.00;99.90
60039;DHT22;45916;52.734;6.544;2023-03-16T00:24:16;4.00;99.90
60039;DHT22;45916;52.734;6.544;2023-03-16T00:26:43;4.00;99.90
60039;DHT22;45916;52.734;6.544;2023-03-16T00:29:09;4.00;99.90
60039;DHT22;45916;52.734;6.544;2023-03-16T00:31:39;4.00;99.90
60039;DHT22;45916;52.734;6.544;2023-03-16T00:34:09;4.00;99.90
60039;DHT22;45916;52.734;6.544;2023-03-16T00:36:35;4.00;99.90
60039;DHT22;45916;52.734;6.544;2023-03-16T00:39:04;4.00;99.90
60039;DHT22;45916;52.734;6.544;2023-03-16T00:41:30;4.00;99.90
60039;DHT22;45916;52.734;6.544;2023-03-16T00:43:56;4.00;99.90
60039;DHT22;45916;52.734;6.544;2023-03-16T00:46:22;4.00;99.90
60039;DHT22;45916;52.734;6.544;2023-03-16T00:48:51;4.00;99.90
60039;DHT22;45916;52.734;6.544;2023-03-16T00:51:17;3.90;99.90
60039;DHT22;45916;52.734;6.544;2023-03-16T00:53:44;3.90;99.90
60039;DHT22;45916;52.734;6.544;2023-03-16T00:56:11;3.90;99.90
60039;DHT22;45916;52.734;6.544;2023-03-16T00:58:39;3.90;99.90
60039;DHT22;45916;52.734;6.544;2023-03-16T01:01:17;3.90;99.90
60039;DHT22;45916;52.734;6.544;2023-03-16T01:03:44;3.90;99.90
60039;DHT22;45916;52.734;6.544;2023-03-16T01:06:13;3.90;99.90
60039;DHT22;45916;52.734;6.544;2023-03-16T01:08:41;3.90;99.90
60039;DHT22;45916;52.734;6.544;2023-03-16T01:11:13;3.90;99.90
60039;DHT22;45916;52.734;6.544;2023-03-16T01:13:41;3.90;99.90
60039;DHT22;45916;52.734;6.544;2023-03-16T01:16:07;3.90;99.90
60039;DHT22;45916;52.734;6.544;2023-03-16T01:18:33;3.90;99.90
60039;DHT22;45916;52.734;6.544;2023-03-16T01:21:00;3.80;99.90
60039;DHT22;45916;52.734;6.544;2023-03-16T01:23:27;3.80;99.90
60039;DHT22;45916;52.734;6.544;2023-03-16T01:25:57;3.80;99.90
60039;DHT22;45916;52.734;6.544;2023-03-16T01:28:26;3.70;99.90
60039;DHT22;45916;52.734;6.544;2023-03-16T01:30:59;3.70;99.90
60039;DHT22;45916;52.734;6.544;2023-03-16T01:33:27;3.70;99.90
60039;DHT22;45916;52.734;6.544;2023-03-16T01:35:58;3.70;99.90
60039;DHT22;45916;52.734;6.544;2023-03-16T01:38:24;3.80;99.90
60039;DHT22;45916;52.734;6.544;2023-03-16T01:40:51;3.80;99.90
60039;DHT22;45916;52.734;6.544;2023-03-16T01:43:20;3.80;99.90
60039;DHT22;45916;52.734;6.544;2023-03-16T01:48:43;3.80;99.90
60039;DHT22;45916;52.734;6.544;2023-03-16T01:51:39;3.80;99.90
60039;DHT22;45916;52.734;6.544;2023-03-16T01:54:25;3.70;99.90
60039;DHT22;45916;52.734;6.544;2023-03-16T01:57:14;3.70;99.90
60039;DHT22;45916;52.734;6.544;2023-03-16T01:59:54;3.70;99.90
60039;DHT22;45916;52.734;6.544;2023-03-16T02:02:23;3.70;99.90
60039;DHT22;45916;52.734;6.544;2023-03-16T02:04:59;3.70;99.90
60039;DHT22;45916;52.734;6.544;2023-03-16T02:07:27;3.80;99.90
60039;DHT22;45916;52.734;6.544;2023-03-16T02:09:57;3.80;99.90
60039;DHT22;45916;52.734;6.544;2023-03-16T02:12:24;3.80;99.90
60039;DHT22;45916;52.734;6.544;2023-03-16T02:14:50;3.80;99.90
60039;DHT22;45916;52.734;6.544;2023-03-16T02:17:19;3.80;99.90
60039;DHT22;45916;52.734;6.544;2023-03-16T02:19:56;3.80;99.90
60039;DHT22;45916;52.734;6.544;2023-03-16T02:22:24;3.80;99.90
60039;DHT22;45916;52.734;6.544;2023-03-16T02:24:51;3.80;99.90
60039;DHT22;45916;52.734;6.544;2023-03-16T02:27:42;3.80;99.90
60039;DHT22;45916;52.734;6.544;2023-03-16T02:30:15;3.80;99.90
60039;DHT22;45916;52.734;6.544;2023-03-16T02:32:41;4.00;99.90
60039;DHT22;45916;52.734;6.544;2023-03-16T02:35:09;4.00;99.90
60039;DHT22;45916;52.734;6.544;2023-03-16T02:37:35;4.00;99.90
60039;DHT22;45916;52.734;6.544;2023-03-16T02:40:12;4.00;99.90
60039;DHT22;45916;52.734;6.544;2023-03-16T02:42:40;4.10;99.90
60039;DHT22;45916;52.734;6.544;2023-03-16T02:45:06;4.00;99.90
60039;DHT22;45916;52.734;6.544;2023-03-16T02:47:39;4.10;99.90
60039;DHT22;45916;52.734;6.544;2023-03-16T02:50:06;4.10;99.90
60039;DHT22;45916;52.734;6.544;2023-03-16T02:52:34;4.20;99.90
60039;DHT22;45916;52.734;6.544;2023-03-16T02:54:59;4.30;99.90
60039;DHT22;45916;52.734;6.544;2023-03-16T02:57:25;4.30;99.90
60039;DHT22;45916;52.734;6.544;2023-03-16T02:59:51;4.30;99.90
60039;DHT22;45916;52.734;6.544;2023-03-16T03:02:16;4.30;99.90
60039;DHT22;45916;52.734;6.544;2023-03-16T03:04:42;4.30;99.90
60039;DHT22;45916;52.734;6.544;2023-03-16T03:07:11;4.30;99.90
60039;DHT22;45916;52.734;6.544;2023-03-16T03:09:39;4.30;99.90
60039;DHT22;45916;52.734;6.544;2023-03-16T03:12:08;4.40;99.90
60039;DHT22;45916;52.734;6.544;2023-03-16T03:14:33;4.40;99.90
60039;DHT22;45916;52.734;6.544;2023-03-16T03:17:03;4.40;99.90
60039;DHT22;45916;52.734;6.544;2023-03-16T03:19:28;4.40;99.90
60039;DHT22;45916;52.734;6.544;2023-03-16T03:21:54;4.50;99.90
60039;DHT22;45916;52.734;6.544;2023-03-16T03:24:22;4.50;99.90
60039;DHT22;45916;52.734;6.544;2023-03-16T03:26:48;4.40;99.90
60039;DHT22;45916;52.734;6.544;2023-03-16T03:29:13;4.50;99.90
60039;DHT22;45916;52.734;6.544;2023-03-16T03:31:39;4.40;99.90
60039;DHT22;45916;52.734;6.544;2023-03-16T03:34:05;4.50;99.90
60039;DHT22;45916;52.734;6.544;2023-03-16T03:36:32;4.50;99.90
60039;DHT22;45916;52.734;6.544;2023-03-16T03:38:58;4.60;99.90
60039;DHT22;45916;52.734;6.544;2023-03-16T03:41:23;4.50;99.90
60039;DHT22;45916;52.734;6.544;2023-03-16T03:43:49;4.60;99.90
60039;DHT22;45916;52.734;6.544;2023-03-16T03:46:15;4.60;99.90
60039;DHT22;45916;52.734;6.544;2023-03-16T03:48:41;4.60;99.90
60039;DHT22;45916;52.734;6.544;2023-03-16T03:51:06;4.60;99.90
60039;DHT22;45916;52.734;6.544;2023-03-16T03:53:32;4.60;99.90
60039;DHT22;45916;52.734;6.544;2023-03-16T03:55:58;4.60;99.90
60039;DHT22;45916;52.734;6.544;2023-03-16T03:58:23;4.60;99.90
60039;DHT22;45916;52.734;6.544;2023-03-16T04:00:50;4.60;99.90
60039;DHT22;45916;52.734;6.544;2023-03-16T04:03:16;4.60;99.90
60039;DHT22;45916;52.734;6.544;2023-03-16T04:05:42;4.60;99.90
60039;DHT22;45916;52.734;6.544;2023-03-16T04:08:07;4.60;99.90
60039;DHT22;45916;52.734;6.544;2023-03-16T04:10:33;4.60;99.90
60039;DHT22;45916;52.734;6.544;2023-03-16T04:12:59;4.50;99.90
60039;DHT22;45916;52.734;6.544;2023-03-16T04:15:25;4.50;99.90
60039;DHT22;45916;52.734;6.544;2023-03-16T04:17:51;4.60;99.90
60039;DHT22;45916;52.734;6.544;2023-03-16T04:20:17;4.50;99.90
60039;DHT22;45916;52.734;6.544;2023-03-16T04:22:47;4.60;99.90
60039;DHT22;45916;52.734;6.544;2023-03-16T04:25:14;4.60;99.90
60039;DHT22;45916;52.734;6.544;2023-03-16T04:27:41;4.60;99.90
60039;DHT22;45916;52.734;6.544;2023-03-16T04:30:12;4.50;99.90
60039;DHT22;45916;52.734;6.544;2023-03-16T04:32:39;4.50;99.90
60039;DHT22;45916;52.734;6.544;2023-03-16T04:35:05;4.50;99.90
60039;DHT22;45916;52.734;6.544;2023-03-16T04:37:31;4.50;99.90
60039;DHT22;45916;52.734;6.544;2023-03-16T04:39:56;4.50;99.90
60039;DHT22;45916;52.734;6.544;2023-03-16T04:42:22;4.50;99.90
60039;DHT22;45916;52.734;6.544;2023-03-16T04:44:48;4.50;99.90
60039;DHT22;45916;52.734;6.544;2023-03-16T04:47:15;4.50;99.90
60039;DHT22;45916;52.734;6.544;2023-03-16T04:49:41;4.50;99.90
60039;DHT22;45916;52.734;6.544;2023-03-16T04:52:07;4.50;99.90
60039;DHT22;45916;52.734;6.544;2023-03-16T04:54:33;4.60;99.90
60039;DHT22;45916;52.734;6.544;2023-03-16T04:56:59;4.60;99.90
60039;DHT22;45916;52.734;6.544;2023-03-16T04:59:26;4.60;99.90
60039;DHT22;45916;52.734;6.544;2023-03-16T05:01:52;4.60;99.90
60039;DHT22;45916;52.734;6.544;2023-03-16T05:04:18;4.60;99.90
60039;DHT22;45916;52.734;6.544;2023-03-16T05:06:44;4.60;99.90
60039;DHT22;45916;52.734;6.544;2023-03-16T05:09:10;4.60;99.90
60039;DHT22;45916;52.734;6.544;2023-03-16T05:11:36;4.70;99.90
60039;DHT22;45916;52.734;6.544;2023-03-16T05:14:02;4.70;99.90
60039;DHT22;45916;52.734;6.544;2023-03-16T05:16:29;4.60;99.90
60039;DHT22;45916;52.734;6.544;2023-03-16T05:19:00;4.60;99.90
60039;DHT22;45916;52.734;6.544;2023-03-16T05:21:26;4.50;99.90
60039;DHT22;45916;52.734;6.544;2023-03-16T05:23:52;4.70;99.90
60039;DHT22;45916;52.734;6.544;2023-03-16T05:26:18;4.70;99.90
60039;DHT22;45916;52.734;6.544;2023-03-16T05:28:44;4.60;99.90
60039;DHT22;45916;52.734;6.544;2023-03-16T05:31:10;4.60;99.90
60039;DHT22;45916;52.734;6.544;2023-03-16T05:33:36;4.60;99.90
60039;DHT22;45916;52.734;6.544;2023-03-16T05:36:03;4.60;99.90
60039;DHT22;45916;52.734;6.544;2023-03-16T05:38:29;4.60;99.90
60039;DHT22;45916;52.734;6.544;2023-03-16T05:40:56;4.70;99.90
60039;DHT22;45916;52.734;6.544;2023-03-16T05:43:26;4.70;99.90
60039;DHT22;45916;52.734;6.544;2023-03-16T05:45:53;4.70;99.90
60039;DHT22;45916;52.734;6.544;2023-03-16T05:48:19;4.70;99.90
60039;DHT22;45916;52.734;6.544;2023-03-16T05:50:46;4.70;99.90
60039;DHT22;45916;52.734;6.544;2023-03-16T05:53:12;4.60;99.90
60039;DHT22;45916;52.734;6.544;2023-03-16T05:55:38;4.60;99.90
60039;DHT22;45916;52.734;6.544;2023-03-16T05:58:03;4.60;99.90
60039;DHT22;45916;52.734;6.544;2023-03-16T06:00:29;4.60;99.90
60039;DHT22;45916;52.734;6.544;2023-03-16T06:02:56;4.50;99.90
60039;DHT22;45916;52.734;6.544;2023-03-16T06:05:22;4.60;99.90
60039;DHT22;45916;52.734;6.544;2023-03-16T06:07:48;4.60;99.90
60039;DHT22;45916;52.734;6.544;2023-03-16T06:10:14;4.60;99.90
60039;DHT22;45916;52.734;6.544;2023-03-16T06:12:40;4.60;99.90
60039;DHT22;45916;52.734;6.544;2023-03-16T06:15:07;4.50;99.90
60039;DHT22;45916;52.734;6.544;2023-03-16T06:17:34;4.60;99.90
60039;DHT22;45916;52.734;6.544;2023-03-16T06:19:59;4.60;99.90
60039;DHT22;45916;52.734;6.544;2023-03-16T06:22:26;4.70;99.90
60039;DHT22;45916;52.734;6.544;2023-03-16T06:24:52;4.70;99.90
60039;DHT22;45916;52.734;6.544;2023-03-16T06:27:18;4.70;99.90
60039;DHT22;45916;52.734;6.544;2023-03-16T06:29:45;4.80;99.90
60039;DHT22;45916;52.734;6.544;2023-03-16T06:32:12;4.70;99.90
60039;DHT22;45916;52.734;6.544;2023-03-16T06:34:38;4.70;99.90
60039;DHT22;45916;52.734;6.544;2023-03-16T06:37:03;4.70;99.90
60039;DHT22;45916;52.734;6.544;2023-03-16T06:39:30;4.80;99.90
60039;DHT22;45916;52.734;6.544;2023-03-16T06:41:56;4.70;99.90
60039;DHT22;45916;52.734;6.544;2023-03-16T06:44:22;4.80;99.90
60039;DHT22;45916;52.734;6.544;2023-03-16T06:46:48;4.80;99.90
60039;DHT22;45916;52.734;6.544;2023-03-16T06:49:14;4.80;99.90
60039;DHT22;45916;52.734;6.544;2023-03-16T06:51:40;4.90;99.90
60039;DHT22;45916;52.734;6.544;2023-03-16T06:54:06;4.90;99.90
60039;DHT22;45916;52.734;6.544;2023-03-16T06:56:32;5.00;99.90
60039;DHT22;45916;52.734;6.544;2023-03-16T06:58:58;5.10;99.90
60039;DHT22;45916;52.734;6.544;2023-03-16T07:01:24;5.10;99.90
60039;DHT22;45916;52.734;6.544;2023-03-16T07:03:50;5.20;99.90
60039;DHT22;45916;52.734;6.544;2023-03-16T07:06:16;5.20;99.90
60039;DHT22;45916;52.734;6.544;2023-03-16T07:08:41;5.10;99.90
60039;DHT22;45916;52.734;6.544;2023-03-16T07:11:08;5.20;99.90
60039;DHT22;45916;52.734;6.544;2023-03-16T07:13:34;5.20;99.90
60039;DHT22;45916;52.734;6.544;2023-03-16T07:16:00;5.20;99.90
60039;DHT22;45916;52.734;6.544;2023-03-16T07:18:26;5.10;99.90
60039;DHT22;45916;52.734;6.544;2023-03-16T07:20:53;5.30;99.90
60039;DHT22;45916;52.734;6.544;2023-03-16T07:23:19;5.20;99.90
60039;DHT22;45916;52.734;6.544;2023-03-16T07:25:44;5.30;99.90
60039;DHT22;45916;52.734;6.544;2023-03-16T07:28:10;5.30;99.90
60039;DHT22;45916;52.734;6.544;2023-03-16T07:30:36;5.30;99.90
60039;DHT22;45916;52.734;6.544;2023-03-16T07:33:02;5.30;99.90
60039;DHT22;45916;52.734;6.544;2023-03-16T07:35:30;5.30;99.90
60039;DHT22;45916;52.734;6.544;2023-03-16T07:37:56;5.30;99.90
60039;DHT22;45916;52.734;6.544;2023-03-16T07:40:22;5.30;99.90
60039;DHT22;45916;52.734;6.544;2023-03-16T07:42:48;5.30;99.90
60039;DHT22;45916;52.734;6.544;2023-03-16T07:45:14;5.40;99.90
60039;DHT22;45916;52.734;6.544;2023-03-16T07:47:42;5.50;99.90
60039;DHT22;45916;52.734;6.544;2023-03-16T07:50:09;5.50;99.90
60039;DHT22;45916;52.734;6.544;2023-03-16T07:52:36;5.60;99.90
60039;DHT22;45916;52.734;6.544;2023-03-16T07:55:02;5.70;99.90
60039;DHT22;45916;52.734;6.544;2023-03-16T07:57:28;5.70;99.90
60039;DHT22;45916;52.734;6.544;2023-03-16T07:59:53;5.70;99.90
60039;DHT22;45916;52.734;6.544;2023-03-16T08:02:19;5.70;99.90
60039;DHT22;45916;52.734;6.544;2023-03-16T08:04:46;5.70;99.90
60039;DHT22;45916;52.734;6.544;2023-03-16T08:07:13;5.70;99.90
60039;DHT22;45916;52.734;6.544;2023-03-16T08:09:40;5.70;99.90
60039;DHT22;45916;52.734;6.544;2023-03-16T08:12:07;5.60;99.90
60039;DHT22;45916;52.734;6.544;2023-03-16T08:14:33;5.60;99.90
60039;DHT22;45916;52.734;6.544;2023-03-16T08:17:04;5.50;99.90
60039;DHT22;45916;52.734;6.544;2023-03-16T08:19:32;5.60;99.90
60039;DHT22;45916;52.734;6.544;2023-03-16T08:21:58;5.50;99.90
60039;DHT22;45916;52.734;6.544;2023-03-16T08:24:26;5.50;99.90
60039;DHT22;45916;52.734;6.544;2023-03-16T08:26:52;5.40;99.90
60039;DHT22;45916;52.734;6.544;2023-03-16T08:29:18;5.40;99.90
60039;DHT22;45916;52.734;6.544;2023-03-16T08:31:44;5.50;99.90
60039;DHT22;45916;52.734;6.544;2023-03-16T08:34:10;5.40;99.90
60039;DHT22;45916;52.734;6.544;2023-03-16T08:36:36;5.40;99.90
60039;DHT22;45916;52.734;6.544;2023-03-16T08:39:03;5.30;99.90
60039;DHT22;45916;52.734;6.544;2023-03-16T08:41:31;5.40;99.90
60039;DHT22;45916;52.734;6.544;2023-03-16T08:43:58;5.40;99.90
60039;DHT22;45916;52.734;6.544;2023-03-16T08:46:24;5.50;99.90
60039;DHT22;45916;52.734;6.544;2023-03-16T08:48:50;5.50;99.90
60039;DHT22;45916;52.734;6.544;2023-03-16T08:51:17;5.60;99.90
60039;DHT22;45916;52.734;6.544;2023-03-16T08:53:43;5.50;99.90
60039;DHT22;45916;52.734;6.544;2023-03-16T08:56:11;5.70;99.90
60039;DHT22;45916;52.734;6.544;2023-03-16T08:58:39;5.60;99.90
60039;DHT22;45916;52.734;6.544;2023-03-16T09:01:14;5.60;99.90
60039;DHT22;45916;52.734;6.544;2023-03-16T09:03:42;5.60;99.90
60039;DHT22;45916;52.734;6.544;2023-03-16T09:06:11;5.60;99.90
60039;DHT22;45916;52.734;6.544;2023-03-16T09:08:38;5.70;99.90
60039;DHT22;45916;52.734;6.544;2023-03-16T09:11:09;5.60;99.90
60039;DHT22;45916;52.734;6.544;2023-03-16T09:13:37;5.70;99.90
60039;DHT22;45916;52.734;6.544;2023-03-16T09:16:05;5.70;99.90
60039;DHT22;45916;52.734;6.544;2023-03-16T09:18:32;5.70;99.90
60039;DHT22;45916;52.734;6.544;2023-03-16T09:21:01;5.70;99.90
60039;DHT22;45916;52.734;6.544;2023-03-16T09:23:27;5.70;99.90
60039;DHT22;45916;52.734;6.544;2023-03-16T09:25:56;5.70;99.90
60039;DHT22;45916;52.734;6.544;2023-03-16T09:28:22;5.70;99.90
60039;DHT22;45916;52.734;6.544;2023-03-16T09:30:48;5.70;99.90
60039;DHT22;45916;52.734;6.544;2023-03-16T09:33:14;5.70;99.90
60039;DHT22;45916;52.734;6.544;2023-03-16T09:35:40;5.70;99.90
60039;DHT22;45916;52.734;6.544;2023-03-16T09:38:07;5.70;99.90
60039;DHT22;45916;52.734;6.544;2023-03-16T09:40:33;5.70;99.90
60039;DHT22;45916;52.734;6.544;2023-03-16T09:48:21;5.90;99.90
60039;DHT22;45916;52.734;6.544;2023-03-16T09:50:47;5.90;99.90
60039;DHT22;45916;52.734;6.544;2023-03-16T09:56:16;6.00;99.90
60039;DHT22;45916;52.734;6.544;2023-03-16T09:58:44;6.10;99.90
60039;DHT22;45916;52.734;6.544;2023-03-16T10:07:21;6.10;99.90
60039;DHT22;45916;52.734;6.544;2023-03-16T10:10:01;6.00;99.90
60039;DHT22;45916;52.734;6.544;2023-03-16T10:12:33;6.00;99.90
60039;DHT22;45916;52.734;6.544;2023-03-16T10:17:49;5.90;99.90
60039;DHT22;45916;52.734;6.544;2023-03-16T10:20:20;5.90;99.90
60039;DHT22;45916;52.734;6.544;2023-03-16T10:22:48;5.90;99.90
60039;DHT22;45916;52.734;6.544;2023-03-16T10:25:41;6.00;99.90
60039;DHT22;45916;52.734;6.544;2023-03-16T10:28:14;6.10;99.90
60039;DHT22;45916;52.734;6.544;2023-03-16T10:30:40;6.20;99.90
60039;DHT22;45916;52.734;6.544;2023-03-16T10:33:19;6.40;99.90
60039;DHT22;45916;52.734;6.544;2023-03-16T10:38:43;6.60;99.90
60039;DHT22;45916;52.734;6.544;2023-03-16T10:43:44;6.70;99.90
60039;DHT22;45916;52.734;6.544;2023-03-16T10:46:10;6.80;99.90
60039;DHT22;45916;52.734;6.544;2023-03-16T10:48:39;6.80;99.90
60039;DHT22;45916;52.734;6.544;2023-03-16T10:51:14;6.80;99.90
60039;DHT22;45916;52.734;6.544;2023-03-16T10:53:42;7.00;99.90
60039;DHT22;45916;52.734;6.544;2023-03-16T10:56:19;6.90;99.90
60039;DHT22;45916;52.734;6.544;2023-03-16T10:58:45;6.80;99.90
60039;DHT22;45916;52.734;6.544;2023-03-16T11:01:31;6.80;99.90
60039;DHT22;45916;52.734;6.544;2023-03-16T11:03:57;6.80;99.90
60039;DHT22;45916;52.734;6.544;2023-03-16T11:06:29;6.90;99.90
60039;DHT22;45916;52.734;6.544;2023-03-16T11:09:09;7.00;99.90
60039;DHT22;45916;52.734;6.544;2023-03-16T11:11:37;7.10;99.90
60039;DHT22;45916;52.734;6.544;2023-03-16T11:14:12;7.10;99.90
60039;DHT22;45916;52.734;6.544;2023-03-16T11:16:47;7.20;99.90
60039;DHT22;45916;52.734;6.544;2023-03-16T11:27:01;7.40;99.90
60039;DHT22;45916;52.734;6.544;2023-03-16T11:32:37;7.60;99.90
60039;DHT22;45916;52.734;6.544;2023-03-16T11:35:59;7.60;99.90
60039;DHT22;45916;52.734;6.544;2023-03-16T11:46:08;8.00;99.90
60039;DHT22;45916;52.734;6.544;2023-03-16T12:03:03;8.90;99.90
60039;DHT22;45916;52.734;6.544;2023-03-16T12:11:00;9.10;99.90
60039;DHT22;45916;52.734;6.544;2023-03-16T12:19:21;9.50;99.90
60039;DHT22;45916;52.734;6.544;2023-03-16T12:24:43;9.20;99.90
60039;DHT22;45916;52.734;6.544;2023-03-16T12:27:15;9.20;99.90
60039;DHT22;45916;52.734;6.544;2023-03-16T12:29:54;9.20;99.90
60039;DHT22;45916;52.734;6.544;2023-03-16T12:46:50;9.30;99.90
60039;DHT22;45916;52.734;6.544;2023-03-16T12:49:18;9.30;99.90
60039;DHT22;45916;52.734;6.544;2023-03-16T12:51:45;9.30;99.90
60039;DHT22;45916;52.734;6.544;2023-03-16T12:54:21;9.30;99.90
60039;DHT22;45916;52.734;6.544;2023-03-16T12:56:49;9.30;99.90
60039;DHT22;45916;52.734;6.544;2023-03-16T12:59:21;9.40;99.90
60039;DHT22;45916;52.734;6.544;2023-03-16T13:01:55;9.40;99.90
60039;DHT22;45916;52.734;6.544;2023-03-16T13:04:30;9.40;99.90
60039;DHT22;45916;52.734;6.544;2023-03-16T13:07:19;9.40;99.90
60039;DHT22;45916;52.734;6.544;2023-03-16T13:10:02;9.40;99.90
60039;DHT22;45916;52.734;6.544;2023-03-16T13:12:33;9.50;99.90
60039;DHT22;45916;52.734;6.544;2023-03-16T13:21:00;9.70;99.90
60039;DHT22;45916;52.734;6.544;2023-03-16T13:23:52;9.90;99.90
60039;DHT22;45916;52.734;6.544;2023-03-16T13:26:31;10.10;99.90
60039;DHT22;45916;52.734;6.544;2023-03-16T13:29:09;10.30;99.90
60039;DHT22;45916;52.734;6.544;2023-03-16T13:31:40;10.50;99.90
60039;DHT22;45916;52.734;6.544;2023-03-16T13:34:12;10.60;99.90
60039;DHT22;45916;52.734;6.544;2023-03-16T13:36:39;10.70;99.90
60039;DHT22;45916;52.734;6.544;2023-03-16T13:39:18;10.50;99.90
60039;DHT22;45916;52.734;6.544;2023-03-16T13:41:56;10.40;99.90
60039;DHT22;45916;52.734;6.544;2023-03-16T13:44:22;10.40;99.90
60039;DHT22;45916;52.734;6.544;2023-03-16T13:46:50;10.40;99.90
60039;DHT22;45916;52.734;6.544;2023-03-16T13:49:16;10.30;99.90
60039;DHT22;45916;52.734;6.544;2023-03-16T13:51:43;10.30;99.90
60039;DHT22;45916;52.734;6.544;2023-03-16T13:54:25;10.30;99.90
60039;DHT22;45916;52.734;6.544;2023-03-16T13:57:01;10.30;99.90
60039;DHT22;45916;52.734;6.544;2023-03-16T13:59:28;10.20;99.90
60039;DHT22;45916;52.734;6.544;2023-03-16T14:01:59;10.30;99.90
60039;DHT22;45916;52.734;6.544;2023-03-16T14:04:31;10.30;99.90
60039;DHT22;45916;52.734;6.544;2023-03-16T14:07:02;10.20;99.90
60039;DHT22;45916;52.734;6.544;2023-03-16T14:09:32;10.20;99.90
60039;DHT22;45916;52.734;6.544;2023-03-16T14:11:59;10.30;99.90
60039;DHT22;45916;52.734;6.544;2023-03-16T14:14:35;10.30;99.90
60039;DHT22;45916;52.734;6.544;2023-03-16T14:17:10;10.20;99.90
60039;DHT22;45916;52.734;6.544;2023-03-16T14:19:48;10.40;99.90
60039;DHT22;45916;52.734;6.544;2023-03-16T14:22:17;10.40;99.90
60039;DHT22;45916;52.734;6.544;2023-03-16T14:24:50;10.50;99.90
60039;DHT22;45916;52.734;6.544;2023-03-16T14:27:42;10.60;99.90
60039;DHT22;45916;52.734;6.544;2023-03-16T14:30:20;10.70;99.90
60039;DHT22;45916;52.734;6.544;2023-03-16T14:33:00;10.80;99.90
60039;DHT22;45916;52.734;6.544;2023-03-16T14:35:31;10.90;99.90
60039;DHT22;45916;52.734;6.544;2023-03-16T14:37:57;11.00;99.90
60039;DHT22;45916;52.734;6.544;2023-03-16T14:40:52;11.10;98.80
60039;DHT22;45916;52.734;6.544;2023-03-16T14:43:22;11.10;97.80
60039;DHT22;45916;52.734;6.544;2023-03-16T14:45:49;11.00;94.50
60039;DHT22;45916;52.734;6.544;2023-03-16T14:48:19;11.00;97.80
60039;DHT22;45916;52.734;6.544;2023-03-16T14:50:53;11.00;99.90
60039;DHT22;45916;52.734;6.544;2023-03-16T14:53:20;11.10;97.70
60039;DHT22;45916;52.734;6.544;2023-03-16T14:55:46;11.10;96.60
60039;DHT22;45916;52.734;6.544;2023-03-16T14:58:12;11.00;98.40
60039;DHT22;45916;52.734;6.544;2023-03-16T15:00:38;11.00;98.40
60039;DHT22;45916;52.734;6.544;2023-03-16T15:03:10;10.90;96.40
60039;DHT22;45916;52.734;6.544;2023-03-16T15:05:41;10.80;98.70
60039;DHT22;45916;52.734;6.544;2023-03-16T15:08:15;10.90;98.00
60039;DHT22;45916;52.734;6.544;2023-03-16T15:10:43;10.90;96.40
60039;DHT22;45916;52.734;6.544;2023-03-16T15:13:14;10.80;95.40
60039;DHT22;45916;52.734;6.544;2023-03-16T15:15:48;10.80;95.40
60039;DHT22;45916;52.734;6.544;2023-03-16T15:18:15;10.80;96.10
60039;DHT22;45916;52.734;6.544;2023-03-16T15:20:42;10.80;97.20
60039;DHT22;45916;52.734;6.544;2023-03-16T15:23:14;10.70;94.60
60039;DHT22;45916;52.734;6.544;2023-03-16T15:25:42;10.80;94.60
60039;DHT22;45916;52.734;6.544;2023-03-16T15:28:16;10.80;96.00
60039;DHT22;45916;52.734;6.544;2023-03-16T15:30:43;10.70;94.70
60039;DHT22;45916;52.734;6.544;2023-03-16T15:33:10;10.70;97.70
60039;DHT22;45916;52.734;6.544;2023-03-16T15:35:37;10.70;98.20
60039;DHT22;45916;52.734;6.544;2023-03-16T15:38:09;10.70;98.30
60039;DHT22;45916;52.734;6.544;2023-03-16T15:40:36;10.60;96.20
60039;DHT22;45916;52.734;6.544;2023-03-16T15:43:08;10.60;97.90
60039;DHT22;45916;52.734;6.544;2023-03-16T15:45:34;10.70;97.70
60039;DHT22;45916;52.734;6.544;2023-03-16T15:48:00;10.70;96.70
60039;DHT22;45916;52.734;6.544;2023-03-16T15:50:26;10.70;96.70
60039;DHT22;45916;52.734;6.544;2023-03-16T15:53:23;10.70;97.10
60039;DHT22;45916;52.734;6.544;2023-03-16T15:55:52;10.60;97.40
60039;DHT22;45916;52.734;6.544;2023-03-16T15:58:23;10.70;93.30
60039;DHT22;45916;52.734;6.544;2023-03-16T16:00:51;10.80;93.20
60039;DHT22;45916;52.734;6.544;2023-03-16T16:03:22;10.70;94.60
60039;DHT22;45916;52.734;6.544;2023-03-16T16:05:48;10.70;95.70
60039;DHT22;45916;52.734;6.544;2023-03-16T16:08:14;10.70;95.90
60039;DHT22;45916;52.734;6.544;2023-03-16T16:10:41;10.60;95.70
60039;DHT22;45916;52.734;6.544;2023-03-16T16:13:18;10.70;96.40
60039;DHT22;45916;52.734;6.544;2023-03-16T16:15:45;10.70;94.60
60039;DHT22;45916;52.734;6.544;2023-03-16T16:18:38;10.70;96.10
60039;DHT22;45916;52.734;6.544;2023-03-16T16:21:05;10.70;95.70
60039;DHT22;45916;52.734;6.544;2023-03-16T16:23:33;10.70;96.10
60039;DHT22;45916;52.734;6.544;2023-03-16T16:26:06;10.70;94.30
60039;DHT22;45916;52.734;6.544;2023-03-16T16:28:34;10.70;91.40
60039;DHT22;45916;52.734;6.544;2023-03-16T16:31:01;10.70;92.20
60039;DHT22;45916;52.734;6.544;2023-03-16T16:33:32;10.70;91.80
60039;DHT22;45916;52.734;6.544;2023-03-16T16:36:00;10.70;92.20
60039;DHT22;45916;52.734;6.544;2023-03-16T16:38:27;10.70;89.60
60039;DHT22;45916;52.734;6.544;2023-03-16T16:40:54;10.70;91.40
60039;DHT22;45916;52.734;6.544;2023-03-16T16:43:41;10.60;91.00
60039;DHT22;45916;52.734;6.544;2023-03-16T16:46:19;10.60;91.50
60039;DHT22;45916;52.734;6.544;2023-03-16T16:48:51;10.40;92.20
60039;DHT22;45916;52.734;6.544;2023-03-16T16:51:23;10.30;93.70
60039;DHT22;45916;52.734;6.544;2023-03-16T16:53:51;10.20;93.90
60039;DHT22;45916;52.734;6.544;2023-03-16T16:56:19;10.20;94.00
60039;DHT22;45916;52.734;6.544;2023-03-16T16:58:47;10.10;93.50
60039;DHT22;45916;52.734;6.544;2023-03-16T17:01:14;10.20;93.10
60039;DHT22;45916;52.734;6.544;2023-03-16T17:03:44;10.10;93.10
60039;DHT22;45916;52.734;6.544;2023-03-16T17:06:15;10.00;93.30
60039;DHT22;45916;52.734;6.544;2023-03-16T17:08:42;10.10;93.40
60039;DHT22;45916;52.734;6.544;2023-03-16T17:11:29;10.00;93.80
60039;DHT22;45916;52.734;6.544;2023-03-16T17:14:01;9.90;95.40
60039;DHT22;45916;52.734;6.544;2023-03-16T17:16:29;9.80;95.70
60039;DHT22;45916;52.734;6.544;2023-03-16T17:18:57;9.80;96.50
60039;DHT22;45916;52.734;6.544;2023-03-16T17:21:26;9.60;97.70
60039;DHT22;45916;52.734;6.544;2023-03-16T17:23:52;9.60;98.40
60039;DHT22;45916;52.734;6.544;2023-03-16T17:26:27;9.60;99.80
60039;DHT22;45916;52.734;6.544;2023-03-16T17:29:09;9.50;99.90